Time;durP1;ratioP1;P1;durP2;ratioP2;P2;SDS_P1;SDS_P2;PMS_P1;PMS_P2;Temp;Humidity;BMP_temperature;BMP_pressure;BME280_temperature;BME280_humidity;BME280_pressure;Samples;Min_cycle;Max_cycle;Signal;HPM_P1;HPM_P2
2022/09/23 00:00:33;;;;;;;15.63;10.30;;;11.50;99.90;;;;;;5054428;28;20040;-45
2022/09/23 00:02:59;;;;;;;14.23;9.60;;;11.50;99.90;;;;;;5053823;28;20044;-45
2022/09/23 00:05:26;;;;;;;13.63;10.38;;;11.40;99.90;;;;;;5054250;28;20106;-46
2022/09/23 00:07:54;;;;;;;13.95;10.45;;;11.40;99.90;;;;;;5054465;28;20053;-44
2022/09/23 00:10:20;;;;;;;12.73;10.10;;;11.40;99.90;;;;;;5052308;28;20036;-44
2022/09/23 00:12:46;;;;;;;15.13;10.00;;;11.40;99.90;;;;;;5054582;28;20043;-43
2022/09/23 00:15:12;;;;;;;12.93;9.95;;;11.30;99.90;;;;;;5037067;28;20475;-43
2022/09/23 00:17:37;;;;;;;14.35;10.38;;;11.40;99.90;;;;;;5054349;28;20051;-44
2022/09/23 00:20:03;;;;;;;15.15;11.48;;;11.40;99.90;;;;;;5054072;28;20492;-44
2022/09/23 00:22:29;;;;;;;12.95;9.65;;;11.40;99.90;;;;;;5054275;28;20049;-44
2022/09/23 00:24:55;;;;;;;13.40;10.73;;;11.50;99.90;;;;;;5052890;28;20048;-44
2022/09/23 00:27:20;;;;;;;14.85;9.65;;;11.40;99.90;;;;;;5054216;28;20060;-44
2022/09/23 00:29:47;;;;;;;13.70;10.40;;;11.30;99.90;;;;;;5053843;28;20041;-43
2022/09/23 00:32:13;;;;;;;14.80;10.55;;;11.40;99.90;;;;;;5050839;28;20033;-44
2022/09/23 00:34:39;;;;;;;11.32;9.05;;;11.30;99.90;;;;;;5054009;28;20033;-44
2022/09/23 00:37:04;;;;;;;13.50;10.43;;;11.20;99.90;;;;;;5053766;28;20037;-46
2022/09/23 00:39:30;;;;;;;11.93;9.88;;;11.20;99.90;;;;;;5054048;28;20040;-46
2022/09/23 00:41:56;;;;;;;14.18;10.75;;;11.10;99.90;;;;;;5039400;28;20531;-46
2022/09/23 00:44:47;;;;;;;16.40;10.73;;;11.20;99.90;;;;;;5052995;28;20064;-44
2022/09/23 00:47:47;;;;;;;12.40;9.60;;;11.10;99.90;;;;;;5053992;28;20033;-44
2022/09/23 00:50:38;;;;;;;13.07;10.07;;;11.10;99.90;;;;;;5052730;28;20408;-43
2022/09/23 00:53:12;;;;;;;16.38;10.50;;;11.00;99.90;;;;;;5053807;28;20032;-46
2022/09/23 00:55:51;;;;;;;14.18;10.52;;;11.00;99.90;;;;;;5052619;28;20051;-44
2022/09/23 00:58:25;;;;;;;13.50;10.52;;;11.00;99.90;;;;;;5034728;28;20033;-44
2022/09/23 01:00:52;;;;;;;13.85;10.85;;;11.00;99.90;;;;;;5053452;28;20044;-45
2022/09/23 01:03:18;;;;;;;15.35;10.52;;;11.00;99.90;;;;;;5053011;28;20071;-44
2022/09/23 01:05:45;;;;;;;13.18;10.73;;;10.90;99.90;;;;;;5053553;28;20067;-45
2022/09/23 01:08:12;;;;;;;16.67;10.45;;;11.00;99.90;;;;;;5050948;28;20040;-44
2022/09/23 01:10:47;;;;;;;14.50;10.55;;;10.90;99.90;;;;;;5050379;28;20033;-43
2022/09/23 01:13:36;;;;;;;11.88;9.98;;;10.90;99.90;;;;;;5053289;28;20048;-43
2022/09/23 01:16:28;;;;;;;13.40;9.93;;;10.90;99.90;;;;;;5053238;28;20052;-45
2022/09/23 01:18:53;;;;;;;12.88;9.95;;;10.90;99.90;;;;;;5052850;28;20077;-43
2022/09/23 01:21:37;;;;;;;12.95;9.38;;;10.80;99.90;;;;;;5052737;28;20091;-45
2022/09/23 01:24:32;;;;;;;13.63;10.73;;;10.80;99.90;;;;;;5051898;28;20049;-45
2022/09/23 01:27:27;;;;;;;13.73;10.60;;;10.80;99.90;;;;;;5053208;28;20463;-44
2022/09/23 01:30:04;;;;;;;14.68;10.82;;;10.80;99.90;;;;;;5021874;28;20464;-44
2022/09/23 01:32:30;;;;;;;15.10;10.95;;;10.80;99.90;;;;;;5051846;28;20056;-44
2022/09/23 01:35:01;;;;;;;13.80;10.95;;;10.80;99.90;;;;;;5052825;28;20045;-46
2022/09/23 01:37:56;;;;;;;14.00;10.05;;;10.70;99.90;;;;;;5052491;28;20155;-45
2022/09/23 01:41:03;;;;;;;14.13;11.45;;;10.70;99.90;;;;;;5049957;28;20753;-43
2022/09/23 01:43:57;;;;;;;18.10;10.82;;;10.70;99.90;;;;;;5039887;28;20052;-44
2022/09/23 01:46:31;;;;;;;13.90;10.48;;;10.70;99.90;;;;;;5051367;28;20500;-44
2022/09/23 01:49:20;;;;;;;13.85;10.68;;;10.70;99.90;;;;;;5051510;28;20076;-45
2022/09/23 01:51:56;;;;;;;15.75;10.98;;;10.60;99.90;;;;;;5052804;28;20502;-43
2022/09/23 01:54:35;;;;;;;16.48;11.35;;;10.60;99.90;;;;;;5051902;28;20072;-43
2022/09/23 01:57:15;;;;;;;15.02;11.13;;;10.60;99.90;;;;;;5052628;28;20370;-43
2022/09/23 01:59:49;;;;;;;17.33;10.95;;;10.60;99.90;;;;;;5052564;28;20396;-43
2022/09/23 02:02:21;;;;;;;13.82;11.40;;;10.60;99.90;;;;;;5051790;28;20041;-45
2022/09/23 02:05:10;;;;;;;17.55;11.18;;;10.40;99.90;;;;;;5052375;28;20476;-44
2022/09/23 02:07:42;;;;;;;14.32;11.35;;;10.40;99.90;;;;;;5052403;28;20118;-45
2022/09/23 02:10:34;;;;;;;14.35;10.73;;;10.40;99.90;;;;;;5051988;28;20119;-43
2022/09/23 02:13:08;;;;;;;18.17;12.07;;;10.40;99.90;;;;;;5052268;28;20040;-43
2022/09/23 02:15:44;;;;;;;16.55;11.35;;;10.40;99.90;;;;;;5052312;28;20106;-45
2022/09/23 02:18:18;;;;;;;14.48;11.38;;;10.30;99.90;;;;;;5052364;28;20037;-43
2022/09/23 02:20:46;;;;;;;16.80;11.13;;;10.40;99.90;;;;;;5052197;28;20115;-44
2022/09/23 02:23:38;;;;;;;12.80;10.60;;;10.30;99.90;;;;;;5048829;28;20041;-44
2022/09/23 02:26:15;;;;;;;19.35;11.68;;;10.20;99.90;;;;;;5051890;28;20036;-43
2022/09/23 02:29:06;;;;;;;16.58;11.48;;;10.20;99.90;;;;;;5049095;28;20484;-44
2022/09/23 02:32:05;;;;;;;14.77;10.80;;;10.20;99.90;;;;;;5051982;28;20522;-43
2022/09/23 02:34:45;;;;;;;15.38;10.40;;;10.10;99.90;;;;;;5047304;28;20049;-44
2022/09/23 02:37:36;;;;;;;14.23;11.07;;;10.30;99.90;;;;;;5051542;28;20383;-46
2022/09/23 02:40:46;;;;;;;15.68;11.13;;;10.10;99.90;;;;;;5051505;28;20040;-43
2022/09/23 02:43:34;;;;;;;16.00;10.80;;;10.00;99.90;;;;;;5033750;28;20099;-44
2022/09/23 02:46:04;;;;;;;14.05;10.65;;;10.00;99.90;;;;;;5051386;28;20130;-45
2022/09/23 02:48:42;;;;;;;13.90;10.93;;;9.90;99.90;;;;;;5050733;28;20472;-42
2022/09/23 02:51:09;;;;;;;12.65;10.77;;;10.00;99.90;;;;;;5051467;28;20068;-43
2022/09/23 02:53:35;;;;;;;14.05;10.82;;;10.00;99.90;;;;;;5051223;28;20125;-45
2022/09/23 02:56:02;;;;;;;13.70;10.90;;;10.00;99.90;;;;;;5051306;28;20049;-43
2022/09/23 02:58:28;;;;;;;18.50;11.82;;;9.90;99.90;;;;;;5051410;28;20361;-43
2022/09/23 03:01:11;;;;;;;13.82;10.77;;;10.00;99.90;;;;;;5048789;28;20036;-45
2022/09/23 03:03:52;;;;;;;15.27;11.35;;;9.90;99.90;;;;;;5051103;28;20037;-45
2022/09/23 03:06:49;;;;;;;15.13;11.35;;;9.90;99.90;;;;;;5050948;28;20086;-44
2022/09/23 03:09:24;;;;;;;15.25;10.60;;;9.80;99.90;;;;;;5050960;28;20044;-42
2022/09/23 03:12:04;;;;;;;14.75;10.88;;;9.70;99.90;;;;;;5048414;28;20036;-44
2022/09/23 03:14:41;;;;;;;14.88;10.77;;;9.70;99.90;;;;;;5051185;28;20580;-43
2022/09/23 03:17:16;;;;;;;15.30;11.35;;;9.70;99.90;;;;;;5050202;28;20118;-44
2022/09/23 03:19:46;;;;;;;13.63;11.07;;;9.60;99.90;;;;;;5050690;28;20053;-46
2022/09/23 03:22:20;;;;;;;15.63;10.63;;;9.60;99.90;;;;;;5050362;28;20048;-45
2022/09/23 03:24:48;;;;;;;14.30;11.52;;;9.60;99.90;;;;;;5050996;28;20854;-43
2022/09/23 03:27:18;;;;;;;14.95;10.55;;;9.60;99.90;;;;;;5051005;28;20094;-43
2022/09/23 03:29:52;;;;;;;13.20;10.80;;;9.50;99.90;;;;;;5048478;28;20036;-44
2022/09/23 03:32:22;;;;;;;14.98;11.30;;;9.60;99.90;;;;;;5049477;28;20083;-42
2022/09/23 03:34:51;;;;;;;13.60;11.02;;;9.50;99.90;;;;;;5049104;28;20464;-44
2022/09/23 03:37:37;;;;;;;14.02;11.25;;;9.50;99.90;;;;;;5050557;28;20073;-44
2022/09/23 03:40:03;;;;;;;13.75;11.48;;;9.50;99.90;;;;;;5050611;28;20047;-42
2022/09/23 03:42:30;;;;;;;14.80;11.25;;;9.50;99.90;;;;;;5050556;28;20116;-44
2022/09/23 03:44:57;;;;;;;14.82;10.85;;;9.50;99.90;;;;;;5050719;28;20045;-46
2022/09/23 03:47:27;;;;;;;16.00;11.63;;;9.40;99.90;;;;;;5050455;28;20159;-43
2022/09/23 03:49:53;;;;;;;14.20;11.23;;;9.40;99.90;;;;;;5050748;28;20032;-44
2022/09/23 03:52:21;;;;;;;14.70;10.95;;;9.40;99.90;;;;;;5040071;28;20044;-44
2022/09/23 03:54:46;;;;;;;15.88;11.20;;;9.50;99.90;;;;;;5050160;28;20033;-42
2022/09/23 03:57:13;;;;;;;13.82;10.80;;;9.40;99.90;;;;;;5050720;28;20037;-45
2022/09/23 03:59:39;;;;;;;15.02;11.23;;;9.40;99.90;;;;;;5048817;28;20423;-44
2022/09/23 04:02:06;;;;;;;14.65;11.43;;;9.40;99.90;;;;;;5050308;28;20036;-43
2022/09/23 04:04:36;;;;;;;15.50;11.40;;;9.40;99.90;;;;;;5050562;28;20361;-43
2022/09/23 04:07:02;;;;;;;13.23;11.10;;;9.30;99.90;;;;;;5050554;28;20044;-44
2022/09/23 04:09:28;;;;;;;15.07;11.70;;;9.30;99.90;;;;;;5048243;28;20432;-44
2022/09/23 04:11:54;;;;;;;14.80;11.48;;;9.30;99.90;;;;;;5050542;28;20041;-44
2022/09/23 04:14:21;;;;;;;14.90;11.90;;;9.40;99.90;;;;;;5050272;28;20400;-43
2022/09/23 04:16:48;;;;;;;17.73;11.18;;;9.30;99.90;;;;;;5050433;28;20049;-42
2022/09/23 04:19:15;;;;;;;19.88;12.40;;;9.40;99.90;;;;;;5050017;28;20069;-43
2022/09/23 04:21:41;;;;;;;15.82;12.30;;;9.40;99.90;;;;;;5050492;28;20234;-44
2022/09/23 04:24:08;;;;;;;13.38;11.10;;;9.40;99.90;;;;;;5050443;28;20420;-42
2022/09/23 04:26:33;;;;;;;14.00;11.82;;;9.40;99.90;;;;;;5050497;28;20176;-45
2022/09/23 04:28:59;;;;;;;16.45;12.20;;;9.40;99.90;;;;;;5050058;28;20502;-47
2022/09/23 04:31:25;;;;;;;15.63;11.73;;;9.50;99.90;;;;;;5050395;28;20037;-45
2022/09/23 04:33:54;;;;;;;16.17;11.95;;;9.50;99.90;;;;;;5047906;28;20043;-45
2022/09/23 04:36:20;;;;;;;15.75;12.45;;;9.50;99.90;;;;;;5050080;28;20037;-47
2022/09/23 04:38:47;;;;;;;16.83;12.30;;;9.60;99.90;;;;;;5050175;28;20060;-43
2022/09/23 04:41:13;;;;;;;16.20;12.60;;;9.50;99.90;;;;;;5049800;28;20051;-42
2022/09/23 04:43:40;;;;;;;17.02;12.55;;;9.40;99.90;;;;;;5050341;28;20151;-47
2022/09/23 04:46:08;;;;;;;17.40;12.18;;;9.50;99.90;;;;;;5052774;28;20606;-45
2022/09/23 04:48:35;;;;;;;17.13;12.00;;;9.40;99.90;;;;;;5053509;28;20045;-45
2022/09/23 04:51:06;;;;;;;15.30;12.75;;;9.40;99.90;;;;;;5053916;28;20068;-42
2022/09/23 04:53:34;;;;;;;16.38;12.90;;;9.40;99.90;;;;;;5044279;28;20048;-42
2022/09/23 04:56:11;;;;;;;15.90;12.50;;;9.30;99.90;;;;;;5053457;28;20053;-43
2022/09/23 04:58:38;;;;;;;17.40;13.18;;;9.40;99.90;;;;;;5053814;28;20076;-44
2022/09/23 05:01:15;;;;;;;17.45;13.40;;;9.30;99.90;;;;;;5037538;28;20029;-44
2022/09/23 05:03:42;;;;;;;16.65;12.75;;;9.30;99.90;;;;;;5053209;28;20508;-47
2022/09/23 05:06:12;;;;;;;17.17;13.18;;;9.20;99.90;;;;;;5053375;28;20040;-46
2022/09/23 05:08:39;;;;;;;18.50;13.45;;;9.20;99.90;;;;;;5051841;28;20041;-45
2022/09/23 05:11:04;;;;;;;16.08;12.93;;;9.30;99.90;;;;;;5053098;28;20116;-43
2022/09/23 05:13:31;;;;;;;14.55;12.98;;;9.20;99.90;;;;;;5053085;28;20128;-42
2022/09/23 05:16:03;;;;;;;16.27;13.45;;;9.20;99.90;;;;;;5053260;28;20041;-42
2022/09/23 05:18:33;;;;;;;16.00;12.80;;;9.20;99.90;;;;;;5051850;28;20033;-43
2022/09/23 05:20:59;;;;;;;17.70;13.65;;;9.10;99.90;;;;;;5052773;28;20518;-43
2022/09/23 05:23:26;;;;;;;17.10;13.15;;;9.10;99.90;;;;;;5053155;28;20059;-44
2022/09/23 05:26:04;;;;;;;15.82;12.82;;;9.20;99.90;;;;;;5051855;28;20452;-43
2022/09/23 05:28:31;;;;;;;15.90;13.10;;;9.20;99.90;;;;;;5051292;28;20080;-43
2022/09/23 05:31:05;;;;;;;18.65;13.18;;;9.20;99.90;;;;;;5044839;28;20032;-45
2022/09/23 05:33:32;;;;;;;17.23;13.30;;;9.10;99.90;;;;;;5051923;28;20041;-46
2022/09/23 05:35:57;;;;;;;19.13;14.23;;;9.20;99.90;;;;;;5051697;28;20033;-44
2022/09/23 05:38:24;;;;;;;17.35;13.35;;;9.20;99.90;;;;;;5052870;28;20083;-44
2022/09/23 05:41:04;;;;;;;22.50;13.73;;;9.20;99.90;;;;;;5052624;28;20041;-45
2022/09/23 05:43:30;;;;;;;16.92;13.68;;;9.30;99.90;;;;;;5050314;28;20460;-43
2022/09/23 05:46:06;;;;;;;17.33;14.18;;;9.40;99.90;;;;;;5052873;28;20480;-44
2022/09/23 05:48:34;;;;;;;16.45;13.50;;;9.30;99.90;;;;;;5052674;28;20028;-44
2022/09/23 05:51:00;;;;;;;16.58;13.43;;;9.40;99.90;;;;;;5052665;28;20116;-43
2022/09/23 05:53:30;;;;;;;17.30;14.20;;;9.40;99.90;;;;;;5052649;28;20048;-43
2022/09/23 05:55:56;;;;;;;18.83;14.15;;;9.40;99.90;;;;;;5052020;28;20955;-43
2022/09/23 05:58:23;;;;;;;17.40;14.35;;;9.50;99.90;;;;;;5052146;28;20121;-45
2022/09/23 06:00:49;;;;;;;17.17;14.27;;;9.50;99.90;;;;;;5052123;28;20045;-45
2022/09/23 06:03:18;;;;;;;16.88;13.85;;;9.50;99.90;;;;;;5051870;28;20064;-46
2022/09/23 06:05:44;;;;;;;19.58;14.23;;;9.50;99.90;;;;;;5042348;28;20068;-43
2022/09/23 06:08:10;;;;;;;16.95;13.85;;;9.60;99.90;;;;;;5052314;28;20040;-44
2022/09/23 06:10:41;;;;;;;16.83;13.60;;;9.60;99.90;;;;;;5051890;28;20037;-44
2022/09/23 06:13:07;;;;;;;18.83;13.52;;;9.60;99.90;;;;;;5052146;28;20068;-44
2022/09/23 06:15:33;;;;;;;19.35;13.27;;;9.60;99.90;;;;;;5052242;28;20037;-43
2022/09/23 06:17:59;;;;;;;18.70;13.68;;;9.60;99.90;;;;;;5052017;28;20029;-44
2022/09/23 06:20:25;;;;;;;17.20;14.23;;;9.70;99.90;;;;;;5051616;28;20059;-42
2022/09/23 06:22:52;;;;;;;18.90;15.38;;;9.70;99.90;;;;;;5051919;28;20139;-44
2022/09/23 06:25:18;;;;;;;19.25;14.65;;;9.80;99.90;;;;;;5051953;28;20029;-45
2022/09/23 06:27:53;;;;;;;15.82;13.93;;;9.70;99.90;;;;;;5052142;28;20116;-45
2022/09/23 06:30:20;;;;;;;16.88;13.43;;;9.80;99.90;;;;;;5051877;28;20480;-43
2022/09/23 06:32:50;;;;;;;16.88;13.15;;;9.70;99.90;;;;;;5042655;28;20049;-45
2022/09/23 06:35:17;;;;;;;20.15;13.95;;;9.80;99.90;;;;;;5051731;28;20053;-44
2022/09/23 06:37:43;;;;;;;21.42;13.70;;;9.80;99.90;;;;;;5051752;28;20053;-45
2022/09/23 06:40:09;;;;;;;17.92;13.63;;;9.90;99.90;;;;;;5051618;28;20037;-44
2022/09/23 06:42:35;;;;;;;15.18;13.38;;;9.90;99.90;;;;;;5051335;28;20094;-43
2022/09/23 06:45:01;;;;;;;19.10;12.95;;;9.90;99.90;;;;;;5049493;28;20130;-44
2022/09/23 06:47:27;;;;;;;18.38;13.57;;;10.00;99.90;;;;;;5050204;28;20028;-46
2022/09/23 06:49:54;;;;;;;20.55;13.68;;;10.00;99.90;;;;;;5051100;28;20075;-45
2022/09/23 06:52:20;;;;;;;15.18;12.85;;;10.00;99.90;;;;;;5042789;28;20615;-45
2022/09/23 06:54:46;;;;;;;21.35;13.38;;;10.10;99.90;;;;;;5042061;28;20052;-46
2022/09/23 06:57:13;;;;;;;19.40;13.15;;;10.10;99.90;;;;;;5026587;28;20063;-43
2022/09/23 06:59:39;;;;;;;15.80;12.93;;;10.10;99.90;;;;;;5045249;28;20032;-45
2022/09/23 07:02:05;;;;;;;14.93;12.52;;;10.20;99.90;;;;;;5043887;28;20048;-44
2022/09/23 07:04:31;;;;;;;15.95;12.65;;;10.20;99.90;;;;;;5035730;28;20176;-44
2022/09/23 07:06:56;;;;;;;16.55;12.50;;;10.30;99.90;;;;;;5035729;28;20128;-45
2022/09/23 07:09:22;;;;;;;15.65;12.23;;;10.40;99.90;;;;;;5043234;28;20037;-43
2022/09/23 07:11:48;;;;;;;17.27;12.73;;;10.40;99.90;;;;;;5045622;28;20555;-44
2022/09/23 07:14:13;;;;;;;17.52;12.93;;;10.40;99.90;;;;;;5044947;28;20091;-45
2022/09/23 07:16:40;;;;;;;18.55;12.20;;;10.30;99.90;;;;;;5042413;28;20036;-44
2022/09/23 07:19:06;;;;;;;15.88;12.00;;;10.50;99.90;;;;;;5044529;28;20044;-43
2022/09/23 07:21:32;;;;;;;17.77;12.85;;;10.60;99.90;;;;;;5044600;28;20057;-43
2022/09/23 07:23:57;;;;;;;19.35;12.50;;;10.50;99.90;;;;;;5044385;28;20047;-44
2022/09/23 07:26:24;;;;;;;17.52;11.23;;;10.60;99.90;;;;;;5046883;28;21403;-44
2022/09/23 07:28:56;;;;;;;16.17;12.10;;;10.70;99.90;;;;;;5044620;28;20079;-44
2022/09/23 07:31:22;;;;;;;15.48;12.18;;;10.70;99.90;;;;;;5042762;28;20045;-44
2022/09/23 07:33:48;;;;;;;14.57;11.65;;;10.80;99.90;;;;;;5042386;28;20057;-43
2022/09/23 07:36:17;;;;;;;17.38;11.90;;;10.90;99.90;;;;;;5041870;28;20118;-44
2022/09/23 07:38:43;;;;;;;16.73;12.30;;;10.90;99.90;;;;;;5038633;28;20103;-42
2022/09/23 07:41:11;;;;;;;18.73;12.20;;;11.00;99.90;;;;;;5023188;28;20045;-44
2022/09/23 07:43:38;;;;;;;15.48;12.25;;;11.10;99.90;;;;;;5041919;28;20487;-45
2022/09/23 07:46:07;;;;;;;17.60;12.10;;;11.10;99.90;;;;;;5027274;28;20131;-43
2022/09/23 07:48:34;;;;;;;15.20;11.80;;;11.10;99.90;;;;;;5044277;28;20067;-45
2022/09/23 07:51:09;;;;;;;16.42;12.32;;;11.20;99.90;;;;;;5029190;28;20033;-44
2022/09/23 07:53:36;;;;;;;17.65;11.77;;;11.30;99.90;;;;;;5044940;28;20135;-44
2022/09/23 07:56:05;;;;;;;16.15;11.27;;;11.40;99.90;;;;;;5045550;28;20047;-44
2022/09/23 07:58:31;;;;;;;14.70;11.38;;;11.40;99.90;;;;;;5042698;28;20033;-45
2022/09/23 08:01:08;;;;;;;16.25;11.25;;;11.40;99.90;;;;;;5044379;28;20044;-43
2022/09/23 08:03:35;;;;;;;15.10;12.00;;;11.50;99.90;;;;;;5031890;28;20033;-44
2022/09/23 08:06:09;;;;;;;15.75;11.63;;;11.70;99.90;;;;;;5046146;28;20036;-43
2022/09/23 08:08:38;;;;;;;;;;;11.70;99.90;;;;;;5045245;28;20116;-43
2022/09/23 08:11:05;;;;;;;14.30;11.07;;;11.90;99.90;;;;;;5045014;28;19939;-45
2022/09/23 08:13:31;;;;;;;15.25;10.98;;;11.80;99.90;;;;;;5044549;28;20367;-45
2022/09/23 08:15:57;;;;;;;15.30;11.60;;;11.90;99.90;;;;;;5043956;28;20040;-42
2022/09/23 08:18:23;;;;;;;15.60;12.23;;;11.90;99.90;;;;;;5045349;28;20045;-43
2022/09/23 08:20:49;;;;;;;14.77;12.40;;;12.10;99.90;;;;;;5043645;28;20055;-44
2022/09/23 08:23:16;;;;;;;14.98;12.20;;;12.10;99.90;;;;;;5048389;28;20496;-46
2022/09/23 08:25:46;;;;;;;16.95;12.43;;;12.10;99.90;;;;;;5049335;28;20040;-46
2022/09/23 08:28:17;;;;;;;16.77;12.35;;;12.20;99.90;;;;;;5044453;28;20029;-45
2022/09/23 08:30:48;;;;;;;15.43;11.98;;;12.30;99.90;;;;;;5045408;28;20041;-43
2022/09/23 08:33:14;;;;;;;16.58;12.63;;;12.40;99.90;;;;;;5046506;28;20531;-44
2022/09/23 08:35:40;;;;;;;14.88;12.88;;;12.50;99.90;;;;;;5046618;28;20372;-45
2022/09/23 08:38:06;;;;;;;16.40;12.27;;;12.50;99.90;;;;;;5046319;28;20037;-46
2022/09/23 08:40:38;;;;;;;18.88;11.75;;;12.70;99.90;;;;;;5033430;28;20123;-43
2022/09/23 08:43:16;;;;;;;15.80;12.18;;;12.80;99.90;;;;;;5043830;28;20044;-45
2022/09/23 08:45:43;;;;;;;16.50;11.80;;;12.90;99.90;;;;;;5042575;28;20045;-45
2022/09/23 08:48:15;;;;;;;12.82;10.63;;;12.90;99.90;;;;;;5040966;28;20037;-43
2022/09/23 08:50:44;;;;;;;13.95;11.65;;;13.10;99.90;;;;;;5046952;28;20064;-44
2022/09/23 08:53:25;;;;;;;13.50;11.50;;;13.30;99.90;;;;;;5046881;28;20040;-45
2022/09/23 08:55:54;;;;;;;12.82;11.32;;;13.40;99.90;;;;;;5036288;28;20388;-44
2022/09/23 08:58:34;;;;;;;15.32;11.35;;;13.50;99.90;;;;;;5046899;28;20379;-46
2022/09/23 09:01:15;;;;;;;14.00;12.15;;;13.60;99.90;;;;;;5035234;28;20036;-48
2022/09/23 09:03:52;;;;;;;13.98;11.10;;;13.80;99.90;;;;;;5050409;28;20049;-45
2022/09/23 09:06:40;;;;;;;12.85;11.15;;;13.90;99.90;;;;;;5047270;28;20095;-47
2022/09/23 09:09:38;;;;;;;11.95;10.05;;;14.00;99.90;;;;;;5031860;28;20044;-46
2022/09/23 09:12:17;;;;;;;12.73;10.93;;;14.20;99.90;;;;;;5023276;28;20099;-46
2022/09/23 09:14:50;;;;;;;20.55;11.15;;;14.30;99.90;;;;;;5036877;28;20045;-44
2022/09/23 09:17:45;;;;;;;15.68;10.30;;;14.50;99.90;;;;;;5048810;28;20040;-48
2022/09/23 09:20:16;;;;;;;13.18;10.13;;;14.40;99.90;;;;;;5047410;28;20524;-47
2022/09/23 09:22:51;;;;;;;14.48;10.50;;;14.50;99.90;;;;;;5033161;28;20103;-46
2022/09/23 09:25:43;;;;;;;11.75;9.45;;;14.50;99.90;;;;;;5044917;28;20436;-45
2022/09/23 09:28:15;;;;;;;11.65;9.85;;;14.50;99.90;;;;;;5044832;28;20032;-47
2022/09/23 09:30:46;;;;;;;11.73;10.15;;;14.40;99.90;;;;;;5046011;28;20040;-42
2022/09/23 09:33:17;;;;;;;12.45;9.95;;;14.50;99.90;;;;;;5031115;28;20052;-43
2022/09/23 09:35:52;;;;;;;11.00;9.80;;;14.50;99.90;;;;;;5043041;28;20045;-42
2022/09/23 09:38:20;;;;;;;12.48;10.27;;;14.50;99.90;;;;;;5042409;28;20041;-43
2022/09/23 09:40:47;;;;;;;11.65;10.27;;;14.50;99.90;;;;;;5044827;28;20163;-44
2022/09/23 09:43:22;;;;;;;12.00;9.98;;;14.40;99.90;;;;;;5047375;28;20053;-46
2022/09/23 09:46:24;;;;;;;14.25;10.23;;;14.40;99.90;;;;;;5049264;28;20116;-42
2022/09/23 09:49:07;;;;;;;12.70;9.70;;;14.50;99.90;;;;;;5048254;28;20519;-44
2022/09/23 09:51:34;;;;;;;13.10;9.90;;;14.60;99.90;;;;;;5045527;28;20037;-42
2022/09/23 09:54:23;;;;;;;12.50;10.40;;;14.60;99.90;;;;;;5042682;28;20045;-44
2022/09/23 09:56:51;;;;;;;13.45;10.40;;;14.60;99.90;;;;;;5042945;28;20083;-44
2022/09/23 09:59:26;;;;;;;11.73;9.77;;;14.60;99.90;;;;;;5043150;28;20034;-43
2022/09/23 10:02:12;;;;;;;14.65;10.82;;;14.70;99.90;;;;;;5043121;28;20430;-43
2022/09/23 10:04:38;;;;;;;10.88;9.38;;;14.70;99.90;;;;;;5044955;28;20094;-44
2022/09/23 10:07:15;;;;;;;11.70;10.30;;;14.80;99.90;;;;;;5047337;28;20491;-44
2022/09/23 10:09:48;;;;;;;14.10;9.90;;;14.80;99.90;;;;;;5046330;28;20189;-42
2022/09/23 10:12:19;;;;;;;11.35;9.35;;;14.90;99.90;;;;;;5046239;28;20037;-44
2022/09/23 10:14:50;;;;;;;14.70;10.02;;;15.00;99.90;;;;;;5047785;28;20105;-44
2022/09/23 10:17:28;;;;;;;11.23;9.55;;;15.10;99.90;;;;;;5047230;28;20119;-42
2022/09/23 10:19:59;;;;;;;12.25;9.70;;;15.10;99.90;;;;;;5046918;28;20105;-44
2022/09/23 10:22:35;;;;;;;13.50;9.77;;;15.20;99.90;;;;;;5041573;28;20095;-46
2022/09/23 10:25:07;;;;;;;10.35;9.10;;;15.20;99.90;;;;;;5043397;28;20072;-44
2022/09/23 10:27:35;;;;;;;11.38;9.45;;;15.20;99.90;;;;;;5047017;28;20036;-44
2022/09/23 10:30:20;;;;;;;12.95;9.30;;;15.30;99.90;;;;;;5046895;28;20388;-46
2022/09/23 10:32:46;;;;;;;12.23;9.02;;;15.40;99.90;;;;;;5045606;28;20116;-44
2022/09/23 10:35:19;;;;;;;11.20;8.90;;;15.50;99.90;;;;;;5043809;28;20075;-43
2022/09/23 10:37:52;;;;;;;11.20;8.93;;;15.50;99.90;;;;;;5045907;28;20037;-45
2022/09/23 10:46:44;;;;;;;12.13;9.15;;;15.60;99.90;;;;;;5044254;28;20092;-43
2022/09/23 10:49:38;;;;;;;10.77;8.93;;;15.60;99.90;;;;;;5045127;28;20092;-45
2022/09/23 10:52:31;;;;;;;11.32;9.02;;;15.50;99.90;;;;;;5044032;28;20131;-43
2022/09/23 10:55:09;;;;;;;12.05;9.05;;;15.50;99.90;;;;;;5047907;28;20041;-43
2022/09/23 10:57:52;;;;;;;10.98;8.73;;;15.60;99.90;;;;;;5046142;28;20045;-43
2022/09/23 11:00:28;;;;;;;12.00;8.98;;;15.60;99.90;;;;;;5044735;28;20047;-46
2022/09/23 11:03:16;;;;;;;12.88;9.73;;;15.60;99.90;;;;;;5042193;28;20484;-43
2022/09/23 11:06:19;;;;;;;11.25;9.07;;;15.60;99.90;;;;;;5043998;28;20507;-43
2022/09/23 11:08:50;;;;;;;11.10;8.43;;;15.70;99.90;;;;;;5047416;28;20449;-44
2022/09/23 11:11:46;;;;;;;11.95;9.30;;;15.60;99.90;;;;;;5045040;28;20040;-43
2022/09/23 11:14:27;;;;;;;11.43;8.50;;;15.70;99.90;;;;;;5021177;28;20043;-43
2022/09/23 11:17:14;;;;;;;13.23;8.77;;;15.60;99.90;;;;;;5042843;28;20039;-43
2022/09/23 11:20:17;;;;;;;11.45;8.25;;;15.60;99.90;;;;;;5044716;28;20079;-44
2022/09/23 11:23:11;;;;;;;11.00;8.57;;;15.60;99.90;;;;;;5043847;28;20036;-42
2022/09/23 11:25:37;;;;;;;;;;;15.60;99.90;;;;;;5025042;28;20036;-44
2022/09/23 11:28:28;;;;;;;10.43;7.80;;;15.60;99.90;;;;;;5043300;28;19919;-45
2022/09/23 11:31:24;;;;;;;12.35;8.40;;;15.60;99.90;;;;;;5041418;28;20055;-42
2022/09/23 11:33:51;;;;;;;11.43;8.70;;;15.30;99.90;;;;;;5040954;28;20036;-42
2022/09/23 11:36:31;;;;;;;12.48;8.95;;;15.60;99.90;;;;;;5042766;28;20096;-45
2022/09/23 11:39:04;;;;;;;13.55;9.15;;;15.70;99.90;;;;;;5041414;28;20492;-43
2022/09/23 11:41:35;;;;;;;10.38;8.27;;;15.70;99.90;;;;;;5041244;28;20071;-46
2022/09/23 11:44:25;;;;;;;13.95;8.90;;;15.80;99.90;;;;;;5030414;28;20076;-42
2022/09/23 11:46:57;;;;;;;10.43;8.43;;;15.80;99.90;;;;;;5040800;28;20510;-44
2022/09/23 11:49:36;;;;;;;11.43;8.90;;;15.80;99.90;;;;;;5039139;28;20061;-45
2022/09/23 11:52:23;;;;;;;10.73;7.57;;;15.80;99.90;;;;;;5040504;28;20033;-43
2022/09/23 11:55:00;;;;;;;10.82;7.47;;;15.80;99.90;;;;;;5043225;28;20041;-46
2022/09/23 11:57:29;;;;;;;11.55;7.50;;;15.80;99.90;;;;;;5051297;28;20431;-45
2022/09/23 12:00:02;;;;;;;12.88;7.05;;;15.80;99.90;;;;;;5053002;28;20164;-44
2022/09/23 12:02:54;;;;;;;11.68;7.68;;;15.80;99.90;;;;;;5052713;28;20033;-45
2022/09/23 12:05:24;;;;;;;9.10;7.25;;;15.80;99.90;;;;;;5051750;28;20051;-44
2022/09/23 12:07:56;;;;;;;12.13;7.53;;;15.80;99.90;;;;;;5049354;28;20060;-46
2022/09/23 12:10:42;;;;;;;11.27;7.68;;;15.80;99.90;;;;;;5050633;28;20119;-46
2022/09/23 12:13:28;;;;;;;10.98;7.85;;;15.80;99.90;;;;;;5054274;28;20041;-46
2022/09/23 12:16:21;;;;;;;12.02;7.13;;;15.80;99.90;;;;;;5053024;28;20048;-42
2022/09/23 12:19:02;;;;;;;11.05;7.25;;;15.80;99.90;;;;;;5053714;28;20504;-47
2022/09/23 12:21:37;;;;;;;12.30;7.93;;;15.80;99.90;;;;;;5053012;28;20380;-43
2022/09/23 12:24:15;;;;;;;12.18;7.63;;;15.80;99.90;;;;;;5053876;28;20476;-46
2022/09/23 12:26:42;;;;;;;12.30;8.05;;;15.80;99.90;;;;;;5053219;28;20051;-46
2022/09/23 12:29:13;;;;;;;13.68;7.95;;;15.80;99.90;;;;;;5053887;28;20037;-47
2022/09/23 12:31:40;;;;;;;9.70;7.68;;;15.80;99.90;;;;;;5053884;28;20032;-45
2022/09/23 12:34:37;;;;;;;12.77;7.85;;;15.90;99.90;;;;;;5049976;28;20119;-44
2022/09/23 12:37:03;;;;;;;11.65;8.10;;;15.80;99.90;;;;;;5051735;28;20048;-44
2022/09/23 12:39:36;;;;;;;14.32;8.07;;;15.80;99.90;;;;;;5053469;28;20045;-44
2022/09/23 12:42:03;;;;;;;10.20;8.15;;;15.90;99.90;;;;;;5053305;28;20048;-44
2022/09/23 12:44:43;;;;;;;9.20;7.22;;;15.90;99.90;;;;;;5053775;28;20480;-45
2022/09/23 12:47:23;;;;;;;13.40;7.80;;;16.00;99.90;;;;;;5053323;28;20037;-46
2022/09/23 12:49:53;;;;;;;9.30;7.50;;;16.00;99.90;;;;;;5053653;28;20102;-44
2022/09/23 12:52:18;;;;;;;11.10;7.55;;;16.00;99.90;;;;;;5053480;28;20029;-45
2022/09/23 12:54:46;;;;;;;10.48;7.32;;;16.10;99.90;;;;;;5050561;28;20053;-45
2022/09/23 12:57:34;;;;;;;11.35;7.03;;;16.10;99.90;;;;;;5053196;28;20396;-45
2022/09/23 13:00:05;;;;;;;9.55;6.47;;;16.20;99.90;;;;;;5052623;28;20045;-43
2022/09/23 13:02:37;;;;;;;8.70;6.47;;;16.20;99.90;;;;;;5052844;28;20095;-45
2022/09/23 13:08:19;;;;;;;10.55;8.13;;;16.20;99.90;;;;;;5051557;28;20059;-46
2022/09/23 13:10:59;;;;;;;11.70;8.60;;;16.30;99.90;;;;;;5049644;28;20480;-47
2022/09/23 13:13:34;;;;;;;15.48;8.27;;;16.30;99.90;;;;;;5051768;28;20073;-46